Time;durP1;ratioP1;P1;durP2;ratioP2;P2;SDS_P1;SDS_P2;PMS_P1;PMS_P2;Temp;Humidity;BMP_temperature;BMP_pressure;BME280_temperature;BME280_humidity;BME280_pressure;Samples;Min_cycle;Max_cycle;Signal;HPM_P1;HPM_P2
2022/04/11 00:01:32;;;;;;;21.73;5.67;;;;;;;18.88;46.49;100639.69;5033649;28;20191;-61
2022/04/11 00:03:57;;;;;;;21.97;6.03;;;;;;;18.87;46.62;100635.19;5033355;28;20169;-62
2022/04/11 00:06:22;;;;;;;22.20;6.33;;;;;;;18.85;47.00;100637.56;5032388;28;20168;-62
2022/04/11 00:08:48;;;;;;;17.83;5.87;;;;;;;18.84;46.92;100625.31;5031764;28;20181;-62
2022/04/11 00:11:13;;;;;;;14.83;4.83;;;;;;;18.85;47.31;100624.09;5031711;28;20259;-62
2022/04/11 00:13:39;;;;;;;28.97;6.97;;;;;;;18.85;47.09;100626.97;5031154;28;20207;-62
2022/04/11 00:16:07;;;;;;;18.47;6.20;;;;;;;18.89;47.40;100627.03;5031077;28;20176;-61
2022/04/11 00:18:35;;;;;;;19.63;6.00;;;;;;;18.85;47.53;100617.53;5014092;28;20183;-61
2022/04/11 00:21:00;;;;;;;19.43;5.80;;;;;;;18.86;47.60;100622.09;5029000;28;20415;-61
2022/04/11 00:23:26;;;;;;;19.47;5.73;;;;;;;18.85;47.67;100626.97;5032482;28;20798;-61
2022/04/11 00:25:51;;;;;;;26.53;5.73;;;;;;;18.88;47.51;100613.94;5033391;28;20176;-61
2022/04/11 00:28:17;;;;;;;17.70;5.30;;;;;;;18.84;47.48;100611.00;5033433;28;20222;-61
2022/04/11 00:30:42;;;;;;;25.83;6.10;;;;;;;18.85;47.51;100614.69;5033515;28;20231;-61
2022/04/11 00:33:08;;;;;;;15.33;5.13;;;;;;;18.86;47.82;100614.31;5033823;28;20208;-61
2022/04/11 00:35:33;;;;;;;15.90;5.43;;;;;;;18.80;47.91;100600.69;5015868;28;20552;-61
2022/04/11 00:37:59;;;;;;;20.97;4.87;;;;;;;18.78;47.97;100603.94;5032288;28;20204;-61
2022/04/11 00:40:24;;;;;;;21.23;5.40;;;;;;;18.79;48.32;100602.72;5033123;28;20541;-61
2022/04/11 00:42:50;;;;;;;24.40;4.97;;;;;;;18.79;48.09;100602.72;5032650;28;20173;-61
2022/04/11 00:45:15;;;;;;;22.13;5.97;;;;;;;18.77;48.44;100599.41;5032911;28;20201;-61
2022/04/11 00:47:41;;;;;;;18.87;4.93;;;;;;;18.78;48.33;100605.97;5033185;28;20611;-61
2022/04/11 00:50:10;;;;;;;19.33;5.10;;;;;;;18.76;48.40;100608.38;5033098;28;20227;-62
2022/04/11 00:52:37;;;;;;;18.33;5.33;;;;;;;18.78;48.77;100609.66;5032541;28;20177;-61
2022/04/11 00:55:04;;;;;;;26.60;5.13;;;;;;;18.72;48.31;100602.56;5014993;28;20498;-61
2022/04/11 00:57:30;;;;;;;14.27;4.23;;;;;;;18.72;48.77;100604.59;5015162;28;20506;-61
2022/04/11 00:59:55;;;;;;;13.33;5.07;;;;;;;18.71;48.52;100595.19;5014750;28;20795;-61
2022/04/11 01:02:21;;;;;;;14.53;4.60;;;;;;;18.74;48.87;100588.72;5032619;28;20179;-61
2022/04/11 01:04:46;;;;;;;13.80;5.70;;;;;;;18.74;48.48;100585.88;5032509;28;20211;-61
2022/04/11 01:07:11;;;;;;;15.77;4.83;;;;;;;18.74;49.09;100587.88;5032740;28;20183;-61
2022/04/11 01:09:37;;;;;;;18.73;4.33;;;;;;;18.74;48.68;100587.88;5015346;28;20199;-61
2022/04/11 01:12:03;;;;;;;16.00;4.70;;;;;;;18.72;48.89;100581.72;5032807;28;20164;-61
2022/04/11 01:14:28;;;;;;;22.23;5.37;;;;;;;18.71;49.00;100589.47;5032323;28;20533;-61
2022/04/11 01:16:54;;;;;;;15.47;4.73;;;;;;;18.74;48.87;100574.44;5032027;28;20237;-61
2022/04/11 01:19:20;;;;;;;13.37;4.53;;;;;;;18.74;48.85;100574.44;5032309;28;20184;-61
2022/04/11 01:21:46;;;;;;;13.60;4.23;;;;;;;18.71;48.99;100572.31;5032479;28;20980;-61
2022/04/11 01:24:12;;;;;;;16.93;5.00;;;;;;;18.71;49.08;100575.16;5032346;28;20188;-61
2022/04/11 01:26:37;;;;;;;14.97;4.40;;;;;;;18.71;49.03;100560.88;5032554;28;20419;-61
2022/04/11 01:29:04;;;;;;;9.00;4.13;;;;;;;18.69;49.07;100569.00;5032512;28;20176;-61
2022/04/11 01:31:30;;;;;;;14.23;4.77;;;;;;;18.73;49.17;100567.06;5032657;28;20181;-61
2022/04/11 01:33:55;;;;;;;15.07;4.67;;;;;;;18.71;49.01;100563.72;5031547;28;20493;-62
2022/04/11 01:36:21;;;;;;;17.63;5.40;;;;;;;18.73;49.08;100561.34;5031830;28;20906;-61
2022/04/11 01:38:46;;;;;;;14.67;4.10;;;;;;;18.70;49.02;100562.06;5030810;28;20258;-62
2022/04/11 01:41:12;;;;;;;13.23;5.00;;;;;;;18.66;49.42;100549.72;5032018;28;20169;-61
2022/04/11 01:43:37;;;;;;;13.40;4.50;;;;;;;18.71;49.10;100555.16;5031489;28;20176;-61
2022/04/11 01:46:03;;;;;;;21.73;4.57;;;;;;;18.69;48.99;100548.16;5031724;28;20196;-61
2022/04/11 01:48:28;;;;;;;10.60;3.70;;;;;;;18.70;49.09;100550.63;5032108;28;20303;-61
2022/04/11 01:50:54;;;;;;;14.53;4.50;;;;;;;18.70;49.09;100544.91;5032059;28;20666;-62
2022/04/11 01:53:20;;;;;;;13.73;3.70;;;;;;;18.76;49.43;100543.41;5012157;28;20687;-61
2022/04/11 01:55:46;;;;;;;16.43;4.53;;;;;;;18.73;49.31;100532.75;5029765;28;20423;-62
2022/04/11 01:58:11;;;;;;;12.47;4.33;;;;;;;18.71;49.17;100529.41;5031842;28;20195;-61
2022/04/11 02:00:37;;;;;;;25.77;4.90;;;;;;;18.72;49.15;100531.06;5031760;28;20223;-61
2022/04/11 02:03:03;;;;;;;10.27;3.80;;;;;;;18.71;49.23;100520.03;5031907;28;20639;-61
2022/04/11 02:05:29;;;;;;;16.97;4.67;;;;;;;18.66;49.21;100517.47;5031853;28;20270;-61
2022/04/11 02:07:54;;;;;;;12.20;4.50;;;;;;;18.69;49.27;100519.56;5031990;28;20510;-61
2022/04/11 02:10:20;;;;;;;10.50;4.00;;;;;;;18.73;49.59;100517.59;5031574;28;20169;-61
2022/04/11 02:12:47;;;;;;;12.80;4.10;;;;;;;18.76;49.38;100509.09;5030625;28;20200;-61
2022/04/11 02:15:13;;;;;;;9.97;4.00;;;;;;;18.65;49.54;100505.19;5031744;28;20176;-62
2022/04/11 02:17:38;;;;;;;12.93;3.53;;;;;;;18.69;49.39;100511.81;5013933;28;20604;-61
2022/04/11 02:20:05;;;;;;;15.37;4.20;;;;;;;18.68;49.54;100504.44;5031127;28;20226;-62
2022/04/11 02:22:48;;;;;;;12.93;4.23;;;;;;;18.71;49.44;100512.25;5031548;28;20216;-61
2022/04/11 02:25:14;;;;;;;13.60;4.10;;;;;;;18.68;49.49;100506.47;5031769;28;20399;-61
2022/04/11 02:27:39;;;;;;;14.17;4.27;;;;;;;18.70;49.48;100509.75;5031125;28;21259;-61
2022/04/11 02:30:05;;;;;;;10.33;3.60;;;;;;;18.69;49.38;100500.38;5013143;28;20247;-61
2022/04/11 02:32:31;;;;;;;16.63;4.57;;;;;;;18.67;49.34;100502.75;5031094;28;20258;-61
2022/04/11 02:34:56;;;;;;;14.07;3.30;;;;;;;18.76;49.18;100496.84;5031493;28;20473;-61
2022/04/11 02:37:22;;;;;;;12.00;4.10;;;;;;;18.70;49.46;100482.00;5031410;28;20543;-61
2022/04/11 02:39:47;;;;;;;12.10;4.07;;;;;;;18.67;49.65;100479.06;5031584;28;20184;-61
2022/04/11 02:42:25;;;;;;;11.40;4.17;;;;;;;18.64;49.70;100476.97;5031231;28;20176;-61
2022/04/11 02:44:51;;;;;;;9.57;3.50;;;;;;;18.66;49.87;100472.50;5011201;28;20177;-62
2022/04/11 02:47:16;;;;;;;11.97;4.20;;;;;;;18.69;49.40;100471.78;5013233;28;20419;-62
2022/04/11 02:49:42;;;;;;;15.30;4.20;;;;;;;18.69;49.62;100468.91;5030218;28;20220;-62
2022/04/11 02:52:08;;;;;;;10.87;3.43;;;;;;;18.66;49.95;100466.00;5031303;28;20180;-62
2022/04/11 02:54:33;;;;;;;12.70;3.80;;;;;;;18.64;49.79;100472.06;5030946;28;20185;-62
2022/04/11 02:56:59;;;;;;;12.50;3.70;;;;;;;18.62;49.96;100471.59;5013798;28;20180;-62
2022/04/11 02:59:24;;;;;;;12.83;4.20;;;;;;;18.63;49.82;100469.59;5031216;28;20168;-61
2022/04/11 03:01:49;;;;;;;9.53;4.20;;;;;;;18.68;49.55;100466.44;5031247;28;20160;-61
2022/04/11 03:04:18;;;;;;;11.33;3.90;;;;;;;18.70;49.65;100461.16;5030467;28;20192;-61
2022/04/11 03:06:43;;;;;;;9.83;3.80;;;;;;;18.69;49.91;100457.47;5033840;28;20173;-61
2022/04/11 03:09:09;;;;;;;8.50;3.37;;;;;;;18.66;49.95;100457.41;5034683;28;20895;-61
2022/04/11 03:11:34;;;;;;;11.90;3.40;;;;;;;18.65;49.69;100444.28;5034786;28;20218;-61
2022/04/11 03:14:00;;;;;;;10.20;4.03;;;;;;;18.65;49.98;100450.00;5034846;28;20200;-62
2022/04/11 03:16:26;;;;;;;9.00;3.40;;;;;;;18.64;49.77;100454.09;5017448;28;20179;-61
2022/04/11 03:18:51;;;;;;;11.47;3.40;;;;;;;18.72;49.37;100459.56;5034953;28;20184;-61
2022/04/11 03:21:16;;;;;;;12.27;3.30;;;;;;;18.67;50.02;100457.00;5034430;28;20180;-61
2022/04/11 03:23:42;;;;;;;10.33;3.03;;;;;;;18.62;50.01;100450.78;5034476;28;20157;-61
2022/04/11 03:26:07;;;;;;;9.43;3.97;;;;;;;18.66;50.16;100446.78;5034643;28;20169;-62
2022/04/11 03:28:33;;;;;;;8.40;3.60;;;;;;;18.64;50.03;100448.38;5032993;28;20183;-62
2022/04/11 03:30:59;;;;;;;10.60;3.73;;;;;;;18.63;49.86;100461.00;5033907;28;20231;-62
2022/04/11 03:33:24;;;;;;;7.37;3.20;;;;;;;18.68;49.62;100464.41;5034652;28;20225;-62
2022/04/11 03:35:50;;;;;;;9.80;3.30;;;;;;;18.63;49.96;100470.44;5034709;28;20453;-62
2022/04/11 03:38:16;;;;;;;6.63;2.90;;;;;;;18.64;49.57;100465.53;5034597;28;20177;-62
2022/04/11 03:40:41;;;;;;;12.30;3.83;;;;;;;18.61;49.96;100458.53;5016222;28;20176;-62
2022/04/11 03:43:07;;;;;;;8.50;3.10;;;;;;;18.64;50.08;100462.66;5034148;28;20177;-62
2022/04/11 03:45:32;;;;;;;7.23;2.80;;;;;;;18.62;49.97;100457.31;5033696;28;20534;-62
2022/04/11 03:47:58;;;;;;;6.30;2.77;;;;;;;18.59;50.13;100458.09;5034035;28;20184;-62
2022/04/11 03:50:23;;;;;;;8.73;2.93;;;;;;;18.57;50.02;100451.91;5033818;28;20244;-62
2022/04/11 03:52:49;;;;;;;9.93;3.87;;;;;;;18.60;50.36;100453.19;5016228;28;20188;-62
2022/04/11 03:55:14;;;;;;;7.47;3.27;;;;;;;18.59;49.94;100446.66;5034233;28;20188;-62
2022/04/11 03:57:40;;;;;;;6.13;2.63;;;;;;;18.65;49.93;100442.28;5033630;28;20572;-62
2022/04/11 04:00:06;;;;;;;7.67;2.90;;;;;;;18.66;50.02;100452.50;5033364;28;20176;-62
2022/04/11 04:02:31;;;;;;;11.60;3.47;;;;;;;18.65;50.11;100459.44;5031911;28;20180;-62
2022/04/11 04:04:57;;;;;;;6.17;2.87;;;;;;;18.64;50.19;100449.19;5032681;28;20667;-61
2022/04/11 04:07:22;;;;;;;10.17;2.93;;;;;;;18.63;49.80;100446.72;5034188;28;20181;-61
2022/04/11 04:09:48;;;;;;;7.73;2.97;;;;;;;18.62;49.89;100440.16;5034022;28;20553;-62
2022/04/11 04:12:14;;;;;;;13.23;3.20;;;;;;;18.61;50.11;100440.56;5033802;28;20169;-62
2022/04/11 04:14:39;;;;;;;11.60;3.10;;;;;;;18.58;50.32;100445.00;4999159;28;20216;-61
2022/04/11 04:17:05;;;;;;;9.03;3.17;;;;;;;18.61;50.01;100440.56;5032570;28;20490;-61
2022/04/11 04:19:30;;;;;;;8.43;3.47;;;;;;;18.60;50.47;100441.75;5033737;28;20502;-61
2022/04/11 04:21:56;;;;;;;7.20;2.80;;;;;;;18.62;50.04;100440.16;5033258;28;20173;-61
2022/04/11 04:24:22;;;;;;;6.70;2.93;;;;;;;18.65;50.07;100430.00;5033816;28;20180;-61
2022/04/11 04:26:51;;;;;;;8.30;2.83;;;;;;;18.65;50.25;100427.97;5033759;28;20256;-61
2022/04/11 04:29:16;;;;;;;9.10;3.17;;;;;;;18.65;50.18;100427.97;5033362;28;20422;-61
2022/04/11 04:31:43;;;;;;;7.40;3.43;;;;;;;18.61;50.02;100427.06;5033118;28;20794;-62
2022/04/11 04:34:08;;;;;;;7.60;2.70;;;;;;;18.62;50.35;100427.91;5033173;28;20901;-62
2022/04/11 04:36:34;;;;;;;6.47;2.77;;;;;;;18.61;50.10;100429.94;5032541;28;20423;-62
2022/04/11 04:39:00;;;;;;;8.33;3.00;;;;;;;18.63;50.51;100430.41;5033236;28;20244;-62
2022/04/11 04:41:26;;;;;;;7.00;3.00;;;;;;;18.63;50.61;100429.56;5033364;28;20176;-62
2022/04/11 04:43:51;;;;;;;9.33;3.00;;;;;;;18.56;50.28;100429.44;5033370;28;20835;-61
2022/04/11 04:46:17;;;;;;;6.90;3.00;;;;;;;18.62;50.15;100428.72;5033334;28;20222;-62
2022/04/11 04:48:42;;;;;;;7.33;3.03;;;;;;;18.65;49.98;100432.84;5032574;28;20236;-61
2022/04/11 04:51:08;;;;;;;6.90;2.70;;;;;;;18.58;50.43;100427.84;5032733;28;20173;-62
2022/04/11 04:53:34;;;;;;;9.43;2.57;;;;;;;18.57;50.32;100422.50;5032436;28;20208;-62
2022/04/11 04:55:59;;;;;;;6.80;2.90;;;;;;;18.57;50.42;100423.31;5032008;28;20192;-62
2022/04/11 04:58:24;;;;;;;8.37;3.27;;;;;;;18.61;50.11;100414.81;5032874;28;20181;-62
2022/04/11 05:00:50;;;;;;;13.10;3.03;;;;;;;18.64;50.03;100422.63;5033113;28;20168;-61
2022/04/11 05:03:15;;;;;;;7.17;3.07;;;;;;;18.63;50.25;100430.41;5033159;28;20180;-61
2022/04/11 05:05:41;;;;;;;6.73;3.47;;;;;;;18.65;50.28;100430.84;5032812;28;20177;-61
2022/04/11 05:08:08;;;;;;;9.33;3.37;;;;;;;18.56;50.52;100430.25;5032211;28;20639;-61
2022/04/11 05:10:33;;;;;;;6.50;2.80;;;;;;;18.61;50.35;100429.94;5032538;28;20164;-61
2022/04/11 05:12:59;;;;;;;7.43;2.97;;;;;;;18.56;50.41;100424.50;5032318;28;20453;-61
2022/04/11 05:15:24;;;;;;;6.70;2.83;;;;;;;18.61;50.17;100417.69;5031936;28;20647;-61
2022/04/11 05:17:49;;;;;;;8.23;2.90;;;;;;;18.56;50.33;100426.56;5032067;28;20207;-61
2022/04/11 05:20:15;;;;;;;7.23;3.37;;;;;;;18.60;50.32;100424.59;5032284;28;20588;-61
2022/04/11 05:22:40;;;;;;;8.67;3.27;;;;;;;18.62;50.37;100423.00;5032371;28;20172;-61
2022/04/11 05:25:06;;;;;;;7.10;3.00;;;;;;;18.62;50.38;100430.78;5031873;28;20181;-61
2022/04/11 05:27:32;;;;;;;6.67;2.33;;;;;;;18.62;50.15;100427.91;5031673;28;20177;-61
2022/04/11 05:29:57;;;;;;;7.73;2.60;;;;;;;18.58;50.57;100430.72;5031814;28;20179;-61
2022/04/11 05:32:23;;;;;;;6.63;2.40;;;;;;;18.60;50.31;100431.13;5032384;28;20536;-61
2022/04/11 05:34:48;;;;;;;7.30;2.90;;;;;;;18.64;50.35;100432.03;5031727;28;20204;-61
2022/04/11 05:37:14;;;;;;;5.60;2.10;;;;;;;18.65;50.05;100432.84;5032517;28;20176;-61
2022/04/11 05:39:39;;;;;;;6.43;3.20;;;;;;;18.64;50.05;100436.94;5032424;28;20181;-62
2022/04/11 05:42:06;;;;;;;6.63;2.60;;;;;;;18.60;50.46;100430.31;5032006;28;20242;-61
2022/04/11 05:44:31;;;;;;;7.37;2.63;;;;;;;18.54;50.42;100432.66;5031088;28;20165;-61
2022/04/11 05:46:57;;;;;;;7.10;2.97;;;;;;;18.27;49.95;100433.69;5027302;28;20521;-62
2022/04/11 05:49:22;;;;;;;10.27;4.63;;;;;;;18.05;42.72;100431.56;5029515;28;20713;-62
2022/04/11 05:51:48;;;;;;;7.97;4.30;;;;;;;18.12;45.95;100437.44;5028914;28;20282;-62
2022/04/11 05:54:13;;;;;;;12.00;5.27;;;;;;;18.56;44.19;100432.28;5028497;28;20200;-62
2022/04/11 05:56:39;;;;;;;15.70;4.97;;;;;;;18.80;44.43;100429.91;5030003;28;20950;-62
2022/04/11 05:59:04;;;;;;;9.67;4.77;;;;;;;18.90;43.97;100434.16;5012415;28;20218;-62
2022/04/11 06:01:31;;;;;;;11.20;4.60;;;;;;;18.92;44.05;100438.28;5030172;28;20695;-61
2022/04/11 06:03:56;;;;;;;8.50;3.90;;;;;;;18.95;45.88;100437.53;5029443;28;20649;-62
2022/04/11 06:06:22;;;;;;;7.47;3.90;;;;;;;18.87;46.65;100430.03;5028336;28;20419;-62
2022/04/11 06:08:47;;;;;;;11.10;4.70;;;;;;;18.99;46.01;100434.75;5030194;28;20639;-62
2022/04/11 06:11:13;;;;;;;7.80;3.43;;;;;;;18.97;47.11;100437.97;5029392;28;20639;-62
2022/04/11 06:13:42;;;;;;;6.83;3.63;;;;;;;18.93;47.06;100431.38;5030801;28;20288;-61
2022/04/11 06:16:08;;;;;;;6.77;3.90;;;;;;;18.89;46.71;100441.09;5030288;28;20186;-61
2022/04/11 06:18:33;;;;;;;6.97;3.53;;;;;;;18.88;47.57;100442.31;5029907;28;20477;-61
2022/04/11 06:20:58;;;;;;;5.40;3.57;;;;;;;18.83;48.03;100443.47;5028946;28;20416;-62
2022/04/11 06:23:24;;;;;;;6.30;3.27;;;;;;;18.84;47.69;100447.13;5030064;28;20620;-62
2022/04/11 06:25:49;;;;;;;6.40;3.50;;;;;;;18.84;46.97;100444.25;5011725;28;20180;-62
2022/04/11 06:28:15;;;;;;;12.40;3.83;;;;;;;18.79;47.62;100451.13;5029551;28;20550;-62
2022/04/11 06:30:40;;;;;;;8.43;3.80;;;;;;;18.84;48.12;100444.25;5029322;28;20179;-62
2022/04/11 06:33:06;;;;;;;6.03;2.90;;;;;;;18.79;47.90;100444.56;5029749;28;20210;-62
2022/04/11 06:35:31;;;;;;;7.37;3.87;;;;;;;18.72;48.03;100453.03;5029666;28;20184;-62
2022/04/11 06:37:57;;;;;;;5.80;3.60;;;;;;;18.68;48.87;100450.09;5029541;28;20230;-61
2022/04/11 06:40:22;;;;;;;4.93;3.10;;;;;;;18.73;48.71;100443.25;5028886;28;20173;-61
2022/04/11 06:42:48;;;;;;;5.17;2.70;;;;;;;18.76;48.79;100440.44;5033637;28;20180;-62
2022/04/11 06:45:14;;;;;;;7.33;3.83;;;;;;;18.86;49.09;100433.28;5033269;28;20193;-62
2022/04/11 06:47:40;;;;;;;8.60;3.47;;;;;;;18.87;48.20;100440.66;5033857;28;20195;-62
2022/04/11 06:50:06;;;;;;;6.37;3.10;;;;;;;18.89;48.86;100444.78;5032825;28;20961;-62
2022/04/11 06:52:31;;;;;;;6.73;2.57;;;;;;;19.00;49.11;100433.53;5032517;28;20262;-62
2022/04/11 06:54:57;;;;;;;7.00;2.97;;;;;;;18.95;49.33;100431.81;5031946;28;20200;-62
2022/04/11 06:57:24;;;;;;;6.90;2.50;;;;;;;19.01;48.92;100433.16;5032561;28;20687;-62
2022/04/11 06:59:50;;;;;;;6.90;2.63;;;;;;;19.03;49.22;100430.75;5033695;28;20198;-62
2022/04/11 07:02:15;;;;;;;4.43;2.67;;;;;;;19.25;48.79;100441.41;5033063;28;20506;-62
2022/04/11 07:04:41;;;;;;;5.53;2.93;;;;;;;19.27;48.72;100444.69;5033857;28;20176;-62
2022/04/11 07:07:06;;;;;;;6.57;3.17;;;;;;;19.52;48.67;100437.34;5033375;28;20210;-62
2022/04/11 07:09:32;;;;;;;8.67;2.97;;;;;;;19.65;48.38;100438.78;5033147;28;20246;-62
2022/04/11 07:11:58;;;;;;;8.70;2.87;;;;;;;19.53;48.75;100438.19;5032409;28;20196;-62
2022/04/11 07:14:23;;;;;;;9.83;2.93;;;;;;;19.61;48.66;100437.91;5031964;28;20212;-62
2022/04/11 07:16:49;;;;;;;6.47;2.60;;;;;;;19.49;49.02;100445.88;5031171;28;20183;-62
2022/04/11 07:19:15;;;;;;;4.87;2.53;;;;;;;19.20;49.33;100444.53;5031365;28;20180;-62
2022/04/11 07:21:40;;;;;;;8.00;3.40;;;;;;;19.19;48.71;100445.75;5031616;28;20926;-62
2022/04/11 07:24:06;;;;;;;11.23;3.57;;;;;;;19.08;48.14;100452.50;5033082;28;20165;-62
2022/04/11 07:26:31;;;;;;;13.10;3.07;;;;;;;19.05;48.44;100447.50;5031073;28;20310;-62
2022/04/11 07:28:57;;;;;;;7.43;3.63;;;;;;;19.00;48.89;100447.84;5021650;28;20211;-62
2022/04/11 07:31:22;;;;;;;9.90;3.40;;;;;;;18.92;47.08;100451.78;5017217;28;20185;-62
2022/04/11 07:33:49;;;;;;;14.77;4.33;;;;;;;18.87;47.17;100452.09;5031930;28;20208;-62
2022/04/11 07:36:14;;;;;;;9.20;3.20;;;;;;;18.83;47.17;100446.31;5032933;28;20180;-62
2022/04/11 07:38:40;;;;;;;15.43;3.90;;;;;;;18.81;47.41;100453.63;5013078;28;20426;-62
2022/04/11 07:41:05;;;;;;;10.67;3.67;;;;;;;18.77;47.64;100450.66;5032139;28;20180;-62
2022/04/11 07:43:31;;;;;;;10.87;3.77;;;;;;;18.77;47.54;100450.66;5033087;28;20235;-62
2022/04/11 07:45:56;;;;;;;7.30;2.90;;;;;;;18.78;47.59;100449.50;5032131;28;20261;-62
2022/04/11 07:48:21;;;;;;;6.23;3.17;;;;;;;18.79;47.67;100445.41;5031964;28;20228;-62
2022/04/11 07:50:47;;;;;;;8.47;2.73;;;;;;;18.88;47.88;100450.88;5031912;28;20222;-62
2022/04/11 07:53:12;;;;;;;9.23;3.77;;;;;;;19.02;48.60;100446.25;5038511;28;20207;-61
2022/04/11 07:55:38;;;;;;;8.37;2.93;;;;;;;18.97;51.00;100454.34;5030655;28;20210;-61
2022/04/11 07:58:04;;;;;;;14.77;3.57;;;;;;;19.04;50.44;100443.84;5030763;28;20181;-61
2022/04/11 08:00:30;;;;;;;15.10;4.03;;;;;;;19.09;50.41;100446.41;5031641;28;20219;-61
2022/04/11 08:02:56;;;;;;;11.03;3.30;;;;;;;19.01;50.67;100450.31;5032252;28;20423;-60
2022/04/11 08:05:22;;;;;;;10.87;4.20;;;;;;;18.92;48.31;100446.88;5032576;28;20184;-59
2022/04/11 08:07:48;;;;;;;9.00;4.57;;;;;;;18.83;46.77;100443.47;5031538;28;20502;-59
2022/04/11 08:10:13;;;;;;;8.17;4.40;;;;;;;18.79;45.35;100441.72;5030347;28;20435;-59
2022/04/11 08:12:40;;;;;;;11.27;4.70;;;;;;;18.79;43.79;100436.00;5029858;28;20239;-60
2022/04/11 08:15:06;;;;;;;9.80;5.00;;;;;;;18.84;43.48;100435.69;5012539;28;20216;-59
2022/04/11 08:17:31;;;;;;;10.10;4.00;;;;;;;18.93;43.10;100431.38;5032437;28;20438;-59
2022/04/11 08:19:57;;;;;;;7.00;3.70;;;;;;;19.05;42.93;100424.63;5033742;28;20926;-59
2022/04/11 08:22:22;;;;;;;8.57;3.80;;;;;;;19.07;43.15;100425.91;5033486;28;20227;-58
2022/04/11 08:24:48;;;;;;;13.73;4.13;;;;;;;19.18;43.01;100424.06;5031546;28;20190;-59
2022/04/11 08:27:13;;;;;;;7.77;3.40;;;;;;;19.25;43.11;100417.66;5032869;28;20176;-59
2022/04/11 08:29:39;;;;;;;8.37;3.30;;;;;;;19.32;43.16;100412.88;5031807;28;20731;-59
2022/04/11 08:32:05;;;;;;;7.07;3.13;;;;;;;19.27;43.46;100416.06;5031399;28;20637;-59
2022/04/11 08:34:30;;;;;;;7.60;3.73;;;;;;;19.23;43.85;100417.22;5032487;28;20338;-59
2022/04/11 08:36:55;;;;;;;8.97;2.53;;;;;;;19.15;43.99;100404.78;5033070;28;20191;-59
2022/04/11 08:39:21;;;;;;;6.97;3.20;;;;;;;19.13;44.54;100403.53;5033135;28;20192;-59
2022/04/11 08:41:46;;;;;;;7.40;2.87;;;;;;;19.11;44.49;100403.91;5033252;28;20173;-59
2022/04/11 08:44:12;;;;;;;9.30;2.87;;;;;;;19.07;44.87;100405.06;5032644;28;20179;-59
2022/04/11 08:46:39;;;;;;;7.37;3.47;;;;;;;19.00;45.24;100402.91;5032663;28;20713;-59
2022/04/11 08:49:06;;;;;;;5.57;2.73;;;;;;;18.96;45.55;100393.41;5011445;28;20460;-59
2022/04/11 08:51:33;;;;;;;5.10;2.60;;;;;;;18.90;45.60;100391.25;5011153;28;20412;-59
2022/04/11 08:54:02;;;;;;;5.43;2.43;;;;;;;18.90;46.17;100389.22;5013089;28;20964;-59
2022/04/11 08:56:28;;;;;;;6.33;3.00;;;;;;;18.92;46.11;100383.94;5013080;28;20448;-59
2022/04/11 08:58:54;;;;;;;4.87;3.03;;;;;;;18.86;46.56;100382.59;5013082;28;20474;-59
2022/04/11 09:01:19;;;;;;;4.73;2.67;;;;;;;18.82;46.66;100381.72;5013300;28;20428;-59
2022/04/11 09:03:44;;;;;;;5.63;2.73;;;;;;;18.83;46.85;100374.81;5012846;28;20169;-59
2022/04/11 09:06:13;;;;;;;4.70;1.90;;;;;;;18.78;46.86;100375.13;5012962;28;20169;-59
2022/04/11 09:08:48;;;;;;;6.00;2.50;;;;;;;18.74;46.89;100371.38;5013093;28;20785;-59
2022/04/11 09:11:13;;;;;;;7.87;2.40;;;;;;;18.75;47.02;100381.59;5011945;28;20493;-59
2022/04/11 09:13:58;;;;;;;5.47;2.67;;;;;;;18.72;47.40;100381.53;5010246;28;20452;-59
2022/04/11 09:16:24;;;;;;;5.17;2.10;;;;;;;18.68;47.47;100381.47;5012672;28;20208;-59
2022/04/11 09:18:52;;;;;;;4.67;2.50;;;;;;;18.65;47.53;100373.63;5012889;28;20518;-59
2022/04/11 09:21:18;;;;;;;6.70;2.43;;;;;;;18.66;47.80;100383.88;5012954;28;20173;-59
2022/04/11 09:23:43;;;;;;;4.73;1.77;;;;;;;18.66;47.68;100372.44;5012424;28;20418;-59
2022/04/11 09:26:23;;;;;;;6.83;2.13;;;;;;;18.64;47.83;100369.13;5012602;28;20420;-59
2022/04/11 09:29:04;;;;;;;4.40;2.17;;;;;;;18.64;48.07;100374.84;5011884;28;20173;-59
2022/04/11 09:31:30;;;;;;;6.30;2.27;;;;;;;18.64;48.02;100369.13;5012520;28;20487;-59
2022/04/11 09:33:56;;;;;;;4.60;2.23;;;;;;;18.62;48.20;100374.38;5011933;28;20487;-59
2022/04/11 09:36:21;;;;;;;5.67;2.00;;;;;;;18.63;47.92;100370.34;5011536;28;20423;-59
2022/04/11 09:38:59;;;;;;;5.67;2.40;;;;;;;18.67;48.16;100365.50;5011384;28;20639;-59
2022/04/11 09:41:34;;;;;;;7.77;2.27;;;;;;;18.66;48.24;100369.56;5011872;28;20231;-59
2022/04/11 09:44:26;;;;;;;7.17;2.20;;;;;;;18.68;48.45;100364.31;5011963;28;20818;-59
2022/04/11 09:46:53;;;;;;;4.93;2.10;;;;;;;18.70;48.04;100361.88;5011786;28;20804;-59
2022/04/11 09:49:19;;;;;;;5.13;2.07;;;;;;;18.72;48.32;100356.59;5021464;28;20507;-59
2022/04/11 09:52:11;;;;;;;4.30;2.00;;;;;;;18.71;48.43;100351.28;5031120;28;20997;-59
2022/04/11 09:54:44;;;;;;;5.63;2.80;;;;;;;18.73;48.28;100357.44;5031497;28;20196;-59
2022/04/11 09:57:14;;;;;;;6.47;2.40;;;;;;;18.72;48.37;100356.59;5032145;28;20503;-59
2022/04/11 09:59:39;;;;;;;5.13;2.33;;;;;;;18.77;48.42;100353.44;5030853;28;20423;-59
2022/04/11 10:02:06;;;;;;;4.47;1.90;;;;;;;18.79;48.34;100344.47;5031064;28;20745;-59
2022/04/11 10:04:31;;;;;;;3.23;1.87;;;;;;;18.78;48.43;100359.97;5031296;28;20176;-59
2022/04/11 10:06:57;;;;;;;4.80;2.27;;;;;;;18.76;48.56;100354.63;5031642;28;20461;-59
2022/04/11 10:09:23;;;;;;;4.00;1.87;;;;;;;18.80;48.63;100343.25;5031350;28;20875;-59
2022/04/11 10:11:52;;;;;;;4.23;1.83;;;;;;;18.80;48.40;100341.22;5032177;28;20207;-59
2022/04/11 10:14:25;;;;;;;9.67;2.23;;;;;;;18.78;48.43;100345.69;5031550;28;20954;-59
2022/04/11 10:16:52;;;;;;;3.20;2.00;;;;;;;18.75;48.36;100346.44;5030854;28;20423;-59
2022/04/11 10:19:39;;;;;;;5.60;2.33;;;;;;;18.75;48.67;100335.84;5031176;28;20810;-59
2022/04/11 10:22:06;;;;;;;4.33;1.80;;;;;;;18.76;48.57;100342.38;5031391;28;20419;-59
2022/04/11 10:24:35;;;;;;;4.53;1.90;;;;;;;18.72;48.43;100330.84;5030683;28;20439;-59
2022/04/11 10:27:19;;;;;;;4.97;2.37;;;;;;;18.70;48.64;100333.28;5031485;28;20465;-59
2022/04/11 10:29:44;;;;;;;6.83;2.17;;;;;;;18.68;48.97;100340.59;5031385;28;20422;-59
2022/04/11 10:32:11;;;;;;;6.10;2.43;;;;;;;18.72;48.72;100341.50;5019070;28;20932;-59
2022/04/11 10:35:04;;;;;;;4.13;1.77;;;;;;;18.68;48.94;100327.13;5011774;28;20282;-59
2022/04/11 10:37:35;;;;;;;3.27;1.90;;;;;;;18.69;49.35;100331.66;5023830;28;20977;-59
2022/04/11 10:40:16;;;;;;;6.13;2.03;;;;;;;18.68;49.41;100324.28;5030617;28;20465;-59
2022/04/11 10:42:59;;;;;;;5.23;1.93;;;;;;;18.66;49.26;100315.22;5030338;28;20506;-59
2022/04/11 10:45:41;;;;;;;4.97;2.10;;;;;;;18.63;49.17;100327.47;5031218;28;20489;-59
2022/04/11 10:48:07;;;;;;;4.30;2.03;;;;;;;18.63;49.28;100306.59;5031214;28;20909;-59
2022/04/11 10:50:36;;;;;;;2.60;1.67;;;;;;;18.60;49.22;100315.94;5031313;28;20403;-59
2022/04/11 10:53:24;;;;;;;4.20;2.03;;;;;;;18.59;49.31;100303.69;5031032;28;20169;-59
2022/04/11 10:56:05;;;;;;;4.03;2.10;;;;;;;18.59;49.68;100303.69;5030318;28;20427;-59
2022/04/11 10:58:50;;;;;;;3.90;1.97;;;;;;;18.59;49.68;100300.81;5031346;28;20423;-58
2022/04/11 11:01:46;;;;;;;3.97;2.10;;;;;;;18.58;49.40;100299.19;5031054;28;20411;-59
2022/04/11 11:04:16;;;;;;;5.60;2.03;;;;;;;18.57;49.82;100294.66;5030816;28;20906;-59
2022/04/11 11:06:41;;;;;;;5.90;2.00;;;;;;;18.58;49.59;100296.31;5031344;28;20758;-59
2022/04/11 11:09:16;;;;;;;5.93;1.70;;;;;;;18.59;49.60;100283.66;5031263;28;20426;-59
2022/04/11 11:11:42;;;;;;;4.83;2.10;;;;;;;18.59;49.82;100275.09;5030742;28;20194;-59
2022/04/11 11:14:07;;;;;;;6.23;2.20;;;;;;;18.60;49.86;100271.03;5012945;28;20454;-59
2022/04/11 11:16:36;;;;;;;3.30;1.53;;;;;;;18.63;49.58;100264.56;5027646;28;20512;-59
2022/04/11 11:19:01;;;;;;;4.73;2.17;;;;;;;18.61;49.46;100275.53;5010645;28;20180;-59
2022/04/11 11:21:33;;;;;;;2.90;1.90;;;;;;;18.63;49.61;100276.00;5011522;28;20412;-59